Silver Lake, New Jersey
Current Conditions -  °F | °C
As of 7:53 AM on Tuesday 21 Oct 2014 (Local Time) from KFWN Reporting Station
Overcast Overcast  
Wind Chill: 47°   Ceiling: 8000
Heat Index: 49°   Visibility: 10mi
Dew Point: 45°   Wind: 5mph
Humidity: 86%   Direction: 80°E
Pressure: 29.88"   Gusts: NA
Location:  41.1122°N, 74.4998°W
Report Text: KFWN 211153Z AUTO 08004KT 10SM FEW055 BKN080 OVC090 09/07 A2988 RMK AO2 SLP121 60001 70001 T00940072 10100 20089 56006
Loading
Personal Weather Stations






























Interactive Weather Map
Tropical Storm Tracking
New forecast layout! Learn more

10-Day Weather Forecast

Advertisements
Track Severe Weather on mobile